sensor_id;sensor_type;location;lat;lon;timestamp;P1;durP1;ratioP1;P2;durP2;ratioP2
72573;SDS011;60603;52.548;13.420;2023-12-28T00:02:13;8.05;;;3.25;;
72573;SDS011;60603;52.548;13.420;2023-12-28T00:04:41;9.63;;;3.88;;
72573;SDS011;60603;52.548;13.420;2023-12-28T00:07:07;9.45;;;4.60;;
72573;SDS011;60603;52.548;13.420;2023-12-28T00:09:34;7.97;;;3.35;;
72573;SDS011;60603;52.548;13.420;2023-12-28T00:12:01;10.23;;;3.95;;
72573;SDS011;60603;52.548;13.420;2023-12-28T00:14:29;10.85;;;4.03;;
72573;SDS011;60603;52.548;13.420;2023-12-28T00:16:55;9.48;;;3.97;;
72573;SDS011;60603;52.548;13.420;2023-12-28T00:19:22;7.93;;;3.30;;
72573;SDS011;60603;52.548;13.420;2023-12-28T00:21:49;9.35;;;4.30;;
72573;SDS011;60603;52.548;13.420;2023-12-28T00:24:20;7.53;;;3.53;;
72573;SDS011;60603;52.548;13.420;2023-12-28T00:26:47;11.70;;;4.22;;
72573;SDS011;60603;52.548;13.420;2023-12-28T00:29:14;9.38;;;3.92;;
72573;SDS011;60603;52.548;13.420;2023-12-28T00:31:40;8.93;;;3.38;;
72573;SDS011;60603;52.548;13.420;2023-12-28T00:34:08;9.00;;;3.50;;
72573;SDS011;60603;52.548;13.420;2023-12-28T00:36:35;9.63;;;3.45;;
72573;SDS011;60603;52.548;13.420;2023-12-28T00:39:02;11.10;;;3.70;;
72573;SDS011;60603;52.548;13.420;2023-12-28T00:41:29;7.70;;;3.25;;
72573;SDS011;60603;52.548;13.420;2023-12-28T00:43:56;7.30;;;3.20;;
72573;SDS011;60603;52.548;13.420;2023-12-28T00:46:23;7.80;;;3.20;;
72573;SDS011;60603;52.548;13.420;2023-12-28T00:48:50;5.03;;;2.58;;
72573;SDS011;60603;52.548;13.420;2023-12-28T00:51:17;5.80;;;3.22;;
72573;SDS011;60603;52.548;13.420;2023-12-28T00:53:44;7.10;;;3.42;;
72573;SDS011;60603;52.548;13.420;2023-12-28T00:56:11;7.80;;;3.30;;
72573;SDS011;60603;52.548;13.420;2023-12-28T00:58:41;6.55;;;3.13;;
72573;SDS011;60603;52.548;13.420;2023-12-28T01:01:09;6.15;;;2.40;;
72573;SDS011;60603;52.548;13.420;2023-12-28T01:03:37;8.50;;;2.97;;
72573;SDS011;60603;52.548;13.420;2023-12-28T01:06:04;6.30;;;2.70;;
72573;SDS011;60603;52.548;13.420;2023-12-28T01:08:32;6.00;;;2.90;;
72573;SDS011;60603;52.548;13.420;2023-12-28T01:11:00;11.70;;;2.78;;
72573;SDS011;60603;52.548;13.420;2023-12-28T01:13:28;7.13;;;2.70;;
72573;SDS011;60603;52.548;13.420;2023-12-28T01:15:55;7.22;;;2.75;;
72573;SDS011;60603;52.548;13.420;2023-12-28T01:18:22;4.93;;;2.67;;
72573;SDS011;60603;52.548;13.420;2023-12-28T01:20:49;5.80;;;2.85;;
72573;SDS011;60603;52.548;13.420;2023-12-28T01:23:16;6.10;;;2.38;;
72573;SDS011;60603;52.548;13.420;2023-12-28T01:25:43;6.63;;;2.75;;
72573;SDS011;60603;52.548;13.420;2023-12-28T01:28:09;6.45;;;3.08;;
72573;SDS011;60603;52.548;13.420;2023-12-28T01:30:36;5.07;;;2.55;;
72573;SDS011;60603;52.548;13.420;2023-12-28T01:33:04;8.05;;;3.10;;
72573;SDS011;60603;52.548;13.420;2023-12-28T01:35:31;6.55;;;2.67;;
72573;SDS011;60603;52.548;13.420;2023-12-28T01:37:57;4.90;;;2.10;;
72573;SDS011;60603;52.548;13.420;2023-12-28T01:40:27;5.82;;;2.70;;
72573;SDS011;60603;52.548;13.420;2023-12-28T01:42:54;5.05;;;2.40;;
72573;SDS011;60603;52.548;13.420;2023-12-28T01:45:20;7.20;;;2.63;;
72573;SDS011;60603;52.548;13.420;2023-12-28T01:47:47;6.13;;;2.53;;
72573;SDS011;60603;52.548;13.420;2023-12-28T01:50:15;4.75;;;2.10;;
72573;SDS011;60603;52.548;13.420;2023-12-28T01:52:42;7.55;;;2.22;;
72573;SDS011;60603;52.548;13.420;2023-12-28T01:55:09;6.60;;;2.15;;
72573;SDS011;60603;52.548;13.420;2023-12-28T01:57:36;4.28;;;2.20;;
72573;SDS011;60603;52.548;13.420;2023-12-28T02:00:03;5.80;;;2.17;;
72573;SDS011;60603;52.548;13.420;2023-12-28T02:02:31;6.18;;;2.10;;
72573;SDS011;60603;52.548;13.420;2023-12-28T02:04:58;5.22;;;1.90;;
72573;SDS011;60603;52.548;13.420;2023-12-28T02:07:26;5.10;;;1.80;;
72573;SDS011;60603;52.548;13.420;2023-12-28T02:09:53;6.90;;;2.03;;
72573;SDS011;60603;52.548;13.420;2023-12-28T02:12:20;5.13;;;2.13;;
72573;SDS011;60603;52.548;13.420;2023-12-28T02:14:47;6.45;;;2.17;;
72573;SDS011;60603;52.548;13.420;2023-12-28T02:17:22;6.25;;;2.75;;
72573;SDS011;60603;52.548;13.420;2023-12-28T02:19:50;4.20;;;1.83;;
72573;SDS011;60603;52.548;13.420;2023-12-28T02:22:19;6.13;;;2.10;;
72573;SDS011;60603;52.548;13.420;2023-12-28T02:27:38;3.88;;;1.90;;
72573;SDS011;60603;52.548;13.420;2023-12-28T02:30:08;3.70;;;1.70;;
72573;SDS011;60603;52.548;13.420;2023-12-28T02:35:33;4.78;;;1.80;;
72573;SDS011;60603;52.548;13.420;2023-12-28T02:38:10;5.45;;;1.75;;
72573;SDS011;60603;52.548;13.420;2023-12-28T02:40:38;7.03;;;2.08;;
72573;SDS011;60603;52.548;13.420;2023-12-28T02:43:07;7.07;;;2.03;;
72573;SDS011;60603;52.548;13.420;2023-12-28T02:45:34;5.55;;;1.88;;
72573;SDS011;60603;52.548;13.420;2023-12-28T02:48:02;3.20;;;1.67;;
72573;SDS011;60603;52.548;13.420;2023-12-28T02:50:30;2.85;;;1.42;;
72573;SDS011;60603;52.548;13.420;2023-12-28T02:52:58;5.53;;;1.70;;
72573;SDS011;60603;52.548;13.420;2023-12-28T02:55:25;4.97;;;1.77;;
72573;SDS011;60603;52.548;13.420;2023-12-28T02:57:52;3.85;;;1.40;;
72573;SDS011;60603;52.548;13.420;2023-12-28T03:00:21;5.65;;;1.63;;
72573;SDS011;60603;52.548;13.420;2023-12-28T03:02:49;5.18;;;1.60;;
72573;SDS011;60603;52.548;13.420;2023-12-28T03:05:15;4.97;;;1.63;;
72573;SDS011;60603;52.548;13.420;2023-12-28T03:07:43;5.30;;;1.52;;
72573;SDS011;60603;52.548;13.420;2023-12-28T03:10:10;4.05;;;1.60;;
72573;SDS011;60603;52.548;13.420;2023-12-28T03:12:40;4.90;;;1.77;;
72573;SDS011;60603;52.548;13.420;2023-12-28T03:15:07;3.13;;;1.55;;
72573;SDS011;60603;52.548;13.420;2023-12-28T03:17:35;3.28;;;1.40;;
72573;SDS011;60603;52.548;13.420;2023-12-28T03:20:04;3.70;;;1.52;;
72573;SDS011;60603;52.548;13.420;2023-12-28T03:22:31;4.00;;;1.48;;
72573;SDS011;60603;52.548;13.420;2023-12-28T03:24:58;5.30;;;1.70;;
72573;SDS011;60603;52.548;13.420;2023-12-28T03:27:25;4.15;;;1.63;;
72573;SDS011;60603;52.548;13.420;2023-12-28T03:29:52;3.70;;;1.38;;
72573;SDS011;60603;52.548;13.420;2023-12-28T03:32:19;2.40;;;1.20;;
72573;SDS011;60603;52.548;13.420;2023-12-28T03:34:45;3.47;;;1.10;;
72573;SDS011;60603;52.548;13.420;2023-12-28T03:37:13;3.80;;;1.40;;
72573;SDS011;60603;52.548;13.420;2023-12-28T03:39:39;3.72;;;1.35;;
72573;SDS011;60603;52.548;13.420;2023-12-28T03:42:06;2.30;;;1.10;;
72573;SDS011;60603;52.548;13.420;2023-12-28T03:44:33;3.45;;;1.38;;
72573;SDS011;60603;52.548;13.420;2023-12-28T03:47:00;3.72;;;1.48;;
72573;SDS011;60603;52.548;13.420;2023-12-28T03:49:26;3.80;;;1.50;;
72573;SDS011;60603;52.548;13.420;2023-12-28T03:51:53;4.20;;;1.70;;
72573;SDS011;60603;52.548;13.420;2023-12-28T03:54:20;3.47;;;1.17;;
72573;SDS011;60603;52.548;13.420;2023-12-28T03:56:47;3.42;;;1.50;;
72573;SDS011;60603;52.548;13.420;2023-12-28T03:59:14;4.05;;;1.48;;
72573;SDS011;60603;52.548;13.420;2023-12-28T04:04:11;4.18;;;1.13;;
72573;SDS011;60603;52.548;13.420;2023-12-28T04:06:39;3.15;;;1.35;;
72573;SDS011;60603;52.548;13.420;2023-12-28T04:09:08;4.88;;;1.75;;
72573;SDS011;60603;52.548;13.420;2023-12-28T04:11:35;4.35;;;1.67;;
72573;SDS011;60603;52.548;13.420;2023-12-28T04:14:01;4.40;;;1.67;;
72573;SDS011;60603;52.548;13.420;2023-12-28T04:16:28;3.65;;;1.63;;
72573;SDS011;60603;52.548;13.420;2023-12-28T04:18:55;3.22;;;1.48;;
72573;SDS011;60603;52.548;13.420;2023-12-28T04:21:22;3.17;;;1.30;;
72573;SDS011;60603;52.548;13.420;2023-12-28T04:23:49;3.40;;;1.42;;
72573;SDS011;60603;52.548;13.420;2023-12-28T04:26:19;3.15;;;1.30;;
72573;SDS011;60603;52.548;13.420;2023-12-28T04:28:48;3.42;;;1.40;;
72573;SDS011;60603;52.548;13.420;2023-12-28T04:31:16;2.60;;;1.17;;
72573;SDS011;60603;52.548;13.420;2023-12-28T04:33:42;3.40;;;1.50;;
72573;SDS011;60603;52.548;13.420;2023-12-28T04:36:09;2.03;;;1.10;;
72573;SDS011;60603;52.548;13.420;2023-12-28T04:38:36;3.17;;;1.17;;
72573;SDS011;60603;52.548;13.420;2023-12-28T04:41:05;4.43;;;2.08;;
72573;SDS011;60603;52.548;13.420;2023-12-28T04:43:32;3.33;;;1.35;;
72573;SDS011;60603;52.548;13.420;2023-12-28T04:46:02;2.53;;;1.20;;
72573;SDS011;60603;52.548;13.420;2023-12-28T04:48:30;3.00;;;1.13;;
72573;SDS011;60603;52.548;13.420;2023-12-28T04:50:58;3.15;;;1.40;;
72573;SDS011;60603;52.548;13.420;2023-12-28T04:53:25;3.20;;;1.10;;
72573;SDS011;60603;52.548;13.420;2023-12-28T04:55:52;3.30;;;1.30;;
72573;SDS011;60603;52.548;13.420;2023-12-28T04:58:18;2.38;;;1.10;;
72573;SDS011;60603;52.548;13.420;2023-12-28T05:00:45;4.57;;;1.10;;
72573;SDS011;60603;52.548;13.420;2023-12-28T05:03:12;2.58;;;1.40;;
72573;SDS011;60603;52.548;13.420;2023-12-28T05:05:40;3.55;;;1.20;;
72573;SDS011;60603;52.548;13.420;2023-12-28T05:08:06;4.30;;;1.40;;
72573;SDS011;60603;52.548;13.420;2023-12-28T05:10:34;2.85;;;1.25;;
72573;SDS011;60603;52.548;13.420;2023-12-28T05:13:00;3.38;;;1.00;;
72573;SDS011;60603;52.548;13.420;2023-12-28T05:15:28;2.28;;;1.20;;
72573;SDS011;60603;52.548;13.420;2023-12-28T05:17:55;2.25;;;1.02;;
72573;SDS011;60603;52.548;13.420;2023-12-28T05:20:23;3.20;;;1.33;;
72573;SDS011;60603;52.548;13.420;2023-12-28T05:22:50;2.15;;;1.20;;
72573;SDS011;60603;52.548;13.420;2023-12-28T05:25:17;2.13;;;1.02;;
72573;SDS011;60603;52.548;13.420;2023-12-28T05:27:44;3.33;;;1.35;;
72573;SDS011;60603;52.548;13.420;2023-12-28T05:30:11;3.38;;;0.95;;
72573;SDS011;60603;52.548;13.420;2023-12-28T05:32:39;4.20;;;1.38;;
72573;SDS011;60603;52.548;13.420;2023-12-28T05:35:06;4.97;;;1.83;;
72573;SDS011;60603;52.548;13.420;2023-12-28T05:37:36;3.05;;;1.10;;
72573;SDS011;60603;52.548;13.420;2023-12-28T05:40:03;3.17;;;1.20;;
72573;SDS011;60603;52.548;13.420;2023-12-28T05:42:30;4.30;;;1.38;;
72573;SDS011;60603;52.548;13.420;2023-12-28T05:44:57;3.10;;;1.25;;
72573;SDS011;60603;52.548;13.420;2023-12-28T05:47:24;4.05;;;1.50;;
72573;SDS011;60603;52.548;13.420;2023-12-28T05:49:52;3.00;;;1.23;;
72573;SDS011;60603;52.548;13.420;2023-12-28T05:52:19;3.63;;;1.10;;
72573;SDS011;60603;52.548;13.420;2023-12-28T05:54:46;4.07;;;1.35;;
72573;SDS011;60603;52.548;13.420;2023-12-28T05:57:14;2.50;;;1.02;;
72573;SDS011;60603;52.548;13.420;2023-12-28T05:59:42;3.17;;;1.30;;
72573;SDS011;60603;52.548;13.420;2023-12-28T06:02:09;2.97;;;1.40;;
72573;SDS011;60603;52.548;13.420;2023-12-28T06:04:36;2.58;;;1.15;;
72573;SDS011;60603;52.548;13.420;2023-12-28T06:07:03;2.20;;;1.20;;
72573;SDS011;60603;52.548;13.420;2023-12-28T06:09:31;2.42;;;1.10;;
72573;SDS011;60603;52.548;13.420;2023-12-28T06:11:57;3.42;;;0.93;;
72573;SDS011;60603;52.548;13.420;2023-12-28T06:14:24;1.90;;;1.00;;
72573;SDS011;60603;52.548;13.420;2023-12-28T06:16:51;4.82;;;1.60;;
72573;SDS011;60603;52.548;13.420;2023-12-28T06:19:18;5.65;;;1.17;;
72573;SDS011;60603;52.548;13.420;2023-12-28T06:21:45;3.38;;;1.27;;
72573;SDS011;60603;52.548;13.420;2023-12-28T06:24:12;2.72;;;1.23;;
72573;SDS011;60603;52.548;13.420;2023-12-28T06:26:42;2.55;;;1.00;;
72573;SDS011;60603;52.548;13.420;2023-12-28T06:29:10;2.17;;;0.90;;
72573;SDS011;60603;52.548;13.420;2023-12-28T06:31:37;3.65;;;1.42;;
72573;SDS011;60603;52.548;13.420;2023-12-28T06:34:04;2.90;;;1.10;;
72573;SDS011;60603;52.548;13.420;2023-12-28T06:36:32;3.70;;;1.25;;
72573;SDS011;60603;52.548;13.420;2023-12-28T06:39:00;4.28;;;1.50;;
72573;SDS011;60603;52.548;13.420;2023-12-28T06:41:27;4.75;;;1.45;;
72573;SDS011;60603;52.548;13.420;2023-12-28T06:43:54;2.85;;;1.15;;
72573;SDS011;60603;52.548;13.420;2023-12-28T06:46:20;4.10;;;1.02;;
72573;SDS011;60603;52.548;13.420;2023-12-28T06:48:48;2.65;;;1.52;;
72573;SDS011;60603;52.548;13.420;2023-12-28T06:51:18;5.03;;;1.52;;
72573;SDS011;60603;52.548;13.420;2023-12-28T06:53:46;3.42;;;1.40;;
72573;SDS011;60603;52.548;13.420;2023-12-28T06:56:14;5.97;;;1.58;;
72573;SDS011;60603;52.548;13.420;2023-12-28T06:58:41;3.20;;;1.38;;
72573;SDS011;60603;52.548;13.420;2023-12-28T07:01:08;3.50;;;1.35;;
72573;SDS011;60603;52.548;13.420;2023-12-28T07:03:35;3.22;;;1.45;;
72573;SDS011;60603;52.548;13.420;2023-12-28T07:06:03;4.03;;;1.55;;
72573;SDS011;60603;52.548;13.420;2023-12-28T07:08:30;4.15;;;1.20;;
72573;SDS011;60603;52.548;13.420;2023-12-28T07:11:01;4.07;;;1.02;;
72573;SDS011;60603;52.548;13.420;2023-12-28T07:13:29;2.95;;;1.13;;
72573;SDS011;60603;52.548;13.420;2023-12-28T07:15:55;3.30;;;1.27;;
72573;SDS011;60603;52.548;13.420;2023-12-28T07:18:26;3.47;;;1.20;;
72573;SDS011;60603;52.548;13.420;2023-12-28T07:20:53;5.30;;;1.58;;
72573;SDS011;60603;52.548;13.420;2023-12-28T07:23:21;3.03;;;1.20;;
72573;SDS011;60603;52.548;13.420;2023-12-28T07:25:47;6.97;;;1.30;;
72573;SDS011;60603;52.548;13.420;2023-12-28T07:28:14;4.53;;;1.33;;
72573;SDS011;60603;52.548;13.420;2023-12-28T07:30:41;3.50;;;1.40;;
72573;SDS011;60603;52.548;13.420;2023-12-28T07:33:09;3.00;;;1.50;;
72573;SDS011;60603;52.548;13.420;2023-12-28T07:35:36;4.38;;;1.30;;
72573;SDS011;60603;52.548;13.420;2023-12-28T07:38:03;3.92;;;1.50;;
72573;SDS011;60603;52.548;13.420;2023-12-28T07:40:30;2.97;;;1.10;;
72573;SDS011;60603;52.548;13.420;2023-12-28T07:42:57;2.42;;;1.13;;
72573;SDS011;60603;52.548;13.420;2023-12-28T07:45:24;3.47;;;1.38;;
72573;SDS011;60603;52.548;13.420;2023-12-28T07:47:52;2.28;;;1.17;;
72573;SDS011;60603;52.548;13.420;2023-12-28T07:50:19;1.95;;;1.00;;
72573;SDS011;60603;52.548;13.420;2023-12-28T07:52:47;5.95;;;1.55;;
72573;SDS011;60603;52.548;13.420;2023-12-28T07:55:15;4.50;;;1.55;;
72573;SDS011;60603;52.548;13.420;2023-12-28T07:57:42;3.78;;;1.25;;
72573;SDS011;60603;52.548;13.420;2023-12-28T08:00:10;3.08;;;1.00;;
72573;SDS011;60603;52.548;13.420;2023-12-28T08:02:37;3.42;;;1.73;;
72573;SDS011;60603;52.548;13.420;2023-12-28T08:05:04;6.20;;;1.50;;
72573;SDS011;60603;52.548;13.420;2023-12-28T08:07:32;3.63;;;1.40;;
72573;SDS011;60603;52.548;13.420;2023-12-28T08:09:59;3.70;;;1.30;;
72573;SDS011;60603;52.548;13.420;2023-12-28T08:12:27;3.63;;;1.30;;
72573;SDS011;60603;52.548;13.420;2023-12-28T08:14:55;4.13;;;1.30;;
72573;SDS011;60603;52.548;13.420;2023-12-28T08:17:22;3.67;;;1.35;;
72573;SDS011;60603;52.548;13.420;2023-12-28T08:19:49;3.95;;;1.48;;
72573;SDS011;60603;52.548;13.420;2023-12-28T08:22:16;4.47;;;1.30;;
72573;SDS011;60603;52.548;13.420;2023-12-28T08:24:43;3.47;;;1.30;;
72573;SDS011;60603;52.548;13.420;2023-12-28T08:27:11;3.67;;;2.00;;
72573;SDS011;60603;52.548;13.420;2023-12-28T08:29:37;4.60;;;1.60;;
72573;SDS011;60603;52.548;13.420;2023-12-28T08:32:07;3.80;;;1.52;;
72573;SDS011;60603;52.548;13.420;2023-12-28T08:34:34;4.22;;;1.58;;
72573;SDS011;60603;52.548;13.420;2023-12-28T08:37:01;2.88;;;1.40;;
72573;SDS011;60603;52.548;13.420;2023-12-28T08:39:28;3.53;;;1.40;;
72573;SDS011;60603;52.548;13.420;2023-12-28T08:41:55;2.47;;;1.27;;
72573;SDS011;60603;52.548;13.420;2023-12-28T08:44:22;3.70;;;1.80;;
72573;SDS011;60603;52.548;13.420;2023-12-28T08:46:49;5.38;;;2.10;;
72573;SDS011;60603;52.548;13.420;2023-12-28T08:49:16;3.03;;;1.33;;
72573;SDS011;60603;52.548;13.420;2023-12-28T08:51:43;3.20;;;1.55;;
72573;SDS011;60603;52.548;13.420;2023-12-28T08:54:10;4.78;;;1.50;;
72573;SDS011;60603;52.548;13.420;2023-12-28T08:56:37;4.85;;;1.67;;
72573;SDS011;60603;52.548;13.420;2023-12-28T08:59:04;4.63;;;1.70;;
72573;SDS011;60603;52.548;13.420;2023-12-28T09:01:31;5.15;;;1.83;;
72573;SDS011;60603;52.548;13.420;2023-12-28T09:03:59;4.47;;;1.67;;
72573;SDS011;60603;52.548;13.420;2023-12-28T09:06:41;3.55;;;1.50;;
72573;SDS011;60603;52.548;13.420;2023-12-28T09:09:08;5.75;;;2.47;;
72573;SDS011;60603;52.548;13.420;2023-12-28T09:11:36;3.38;;;1.90;;
72573;SDS011;60603;52.548;13.420;2023-12-28T09:14:02;4.03;;;1.80;;
72573;SDS011;60603;52.548;13.420;2023-12-28T09:16:29;4.47;;;1.90;;
72573;SDS011;60603;52.548;13.420;2023-12-28T09:18:56;3.15;;;1.50;;
72573;SDS011;60603;52.548;13.420;2023-12-28T09:21:24;5.80;;;1.63;;
72573;SDS011;60603;52.548;13.420;2023-12-28T09:23:56;4.80;;;1.67;;
72573;SDS011;60603;52.548;13.420;2023-12-28T09:26:23;4.65;;;1.90;;
72573;SDS011;60603;52.548;13.420;2023-12-28T09:28:50;4.30;;;1.85;;
72573;SDS011;60603;52.548;13.420;2023-12-28T09:31:17;4.32;;;2.35;;
72573;SDS011;60603;52.548;13.420;2023-12-28T09:33:44;6.82;;;1.60;;
72573;SDS011;60603;52.548;13.420;2023-12-28T09:36:11;4.03;;;1.60;;
72573;SDS011;60603;52.548;13.420;2023-12-28T09:38:41;3.28;;;1.50;;
72573;SDS011;60603;52.548;13.420;2023-12-28T09:41:12;3.97;;;1.48;;
72573;SDS011;60603;52.548;13.420;2023-12-28T09:44:05;4.13;;;2.28;;
72573;SDS011;60603;52.548;13.420;2023-12-28T09:46:30;4.40;;;2.10;;
72573;SDS011;60603;52.548;13.420;2023-12-28T09:48:58;4.20;;;1.85;;
72573;SDS011;60603;52.548;13.420;2023-12-28T09:51:25;5.53;;;1.42;;
72573;SDS011;60603;52.548;13.420;2023-12-28T09:53:53;4.38;;;1.60;;
72573;SDS011;60603;52.548;13.420;2023-12-28T09:56:20;7.60;;;3.05;;
72573;SDS011;60603;52.548;13.420;2023-12-28T09:58:47;6.65;;;2.42;;
72573;SDS011;60603;52.548;13.420;2023-12-28T10:01:18;5.80;;;1.90;;
72573;SDS011;60603;52.548;13.420;2023-12-28T10:03:45;7.07;;;2.22;;
72573;SDS011;60603;52.548;13.420;2023-12-28T10:06:12;4.18;;;1.65;;
72573;SDS011;60603;52.548;13.420;2023-12-28T10:08:45;6.03;;;2.75;;
72573;SDS011;60603;52.548;13.420;2023-12-28T10:11:15;5.03;;;2.10;;
72573;SDS011;60603;52.548;13.420;2023-12-28T10:13:42;4.70;;;1.50;;
72573;SDS011;60603;52.548;13.420;2023-12-28T10:16:11;4.40;;;2.13;;
72573;SDS011;60603;52.548;13.420;2023-12-28T10:18:41;3.17;;;1.85;;
72573;SDS011;60603;52.548;13.420;2023-12-28T10:21:12;5.85;;;2.63;;
72573;SDS011;60603;52.548;13.420;2023-12-28T10:23:39;4.53;;;2.05;;
72573;SDS011;60603;52.548;13.420;2023-12-28T10:26:06;6.30;;;1.70;;
72573;SDS011;60603;52.548;13.420;2023-12-28T10:28:36;4.28;;;1.77;;
72573;SDS011;60603;52.548;13.420;2023-12-28T10:31:05;4.25;;;1.50;;
72573;SDS011;60603;52.548;13.420;2023-12-28T10:33:35;7.47;;;2.15;;
72573;SDS011;60603;52.548;13.420;2023-12-28T10:36:07;4.90;;;2.13;;
72573;SDS011;60603;52.548;13.420;2023-12-28T10:38:36;4.75;;;1.55;;
72573;SDS011;60603;52.548;13.420;2023-12-28T10:41:07;6.63;;;1.67;;
72573;SDS011;60603;52.548;13.420;2023-12-28T10:44:08;3.20;;;1.55;;
72573;SDS011;60603;52.548;13.420;2023-12-28T10:49:08;5.75;;;1.52;;
72573;SDS011;60603;52.548;13.420;2023-12-28T10:51:41;6.22;;;2.17;;
72573;SDS011;60603;52.548;13.420;2023-12-28T10:57:33;5.03;;;1.40;;
72573;SDS011;60603;52.548;13.420;2023-12-28T11:00:10;4.35;;;1.73;;
72573;SDS011;60603;52.548;13.420;2023-12-28T11:02:44;4.95;;;1.98;;
72573;SDS011;60603;52.548;13.420;2023-12-28T11:05:12;4.85;;;1.52;;
72573;SDS011;60603;52.548;13.420;2023-12-28T11:07:40;4.72;;;1.90;;
72573;SDS011;60603;52.548;13.420;2023-12-28T11:10:07;3.88;;;2.00;;
72573;SDS011;60603;52.548;13.420;2023-12-28T11:12:37;4.65;;;2.20;;
72573;SDS011;60603;52.548;13.420;2023-12-28T11:15:07;4.53;;;2.03;;
72573;SDS011;60603;52.548;13.420;2023-12-28T11:17:37;4.22;;;1.60;;
72573;SDS011;60603;52.548;13.420;2023-12-28T11:20:04;4.43;;;1.92;;
72573;SDS011;60603;52.548;13.420;2023-12-28T11:22:32;4.20;;;2.00;;
72573;SDS011;60603;52.548;13.420;2023-12-28T11:24:59;4.07;;;1.60;;
72573;SDS011;60603;52.548;13.420;2023-12-28T11:27:36;3.92;;;1.67;;
72573;SDS011;60603;52.548;13.420;2023-12-28T11:30:07;3.20;;;1.30;;
72573;SDS011;60603;52.548;13.420;2023-12-28T11:32:37;4.25;;;1.63;;
72573;SDS011;60603;52.548;13.420;2023-12-28T11:35:06;5.03;;;1.98;;
72573;SDS011;60603;52.548;13.420;2023-12-28T11:37:37;4.18;;;1.40;;
72573;SDS011;60603;52.548;13.420;2023-12-28T11:40:12;3.17;;;1.42;;
72573;SDS011;60603;52.548;13.420;2023-12-28T11:42:52;5.03;;;1.80;;
72573;SDS011;60603;52.548;13.420;2023-12-28T11:45:21;4.70;;;1.50;;
72573;SDS011;60603;52.548;13.420;2023-12-28T11:47:59;4.25;;;1.85;;
72573;SDS011;60603;52.548;13.420;2023-12-28T11:50:27;4.00;;;1.40;;
72573;SDS011;60603;52.548;13.420;2023-12-28T11:52:55;4.70;;;1.45;;
72573;SDS011;60603;52.548;13.420;2023-12-28T11:55:21;3.95;;;1.42;;
72573;SDS011;60603;52.548;13.420;2023-12-28T11:57:50;7.75;;;1.75;;
72573;SDS011;60603;52.548;13.420;2023-12-28T12:00:17;4.18;;;1.55;;
72573;SDS011;60603;52.548;13.420;2023-12-28T12:02:44;3.72;;;1.23;;
72573;SDS011;60603;52.548;13.420;2023-12-28T12:05:16;2.95;;;1.30;;
72573;SDS011;60603;52.548;13.420;2023-12-28T12:07:43;3.67;;;1.40;;
72573;SDS011;60603;52.548;13.420;2023-12-28T12:10:14;8.23;;;1.80;;
72573;SDS011;60603;52.548;13.420;2023-12-28T12:12:41;5.22;;;1.60;;
72573;SDS011;60603;52.548;13.420;2023-12-28T12:15:09;4.13;;;1.63;;
72573;SDS011;60603;52.548;13.420;2023-12-28T12:17:36;5.15;;;1.65;;
72573;SDS011;60603;52.548;13.420;2023-12-28T12:20:03;5.20;;;1.70;;
72573;SDS011;60603;52.548;13.420;2023-12-28T12:22:31;4.55;;;1.65;;
72573;SDS011;60603;52.548;13.420;2023-12-28T12:24:59;5.38;;;2.00;;
72573;SDS011;60603;52.548;13.420;2023-12-28T12:27:26;3.78;;;1.25;;
72573;SDS011;60603;52.548;13.420;2023-12-28T12:29:53;5.07;;;1.60;;
72573;SDS011;60603;52.548;13.420;2023-12-28T12:32:20;5.13;;;1.60;;
72573;SDS011;60603;52.548;13.420;2023-12-28T12:34:48;4.20;;;1.52;;
72573;SDS011;60603;52.548;13.420;2023-12-28T12:37:16;3.25;;;1.25;;
72573;SDS011;60603;52.548;13.420;2023-12-28T12:39:43;4.45;;;1.60;;
72573;SDS011;60603;52.548;13.420;2023-12-28T12:42:13;4.90;;;1.50;;
72573;SDS011;60603;52.548;13.420;2023-12-28T12:47:07;6.53;;;1.67;;
72573;SDS011;60603;52.548;13.420;2023-12-28T12:49:34;4.57;;;1.73;;
72573;SDS011;60603;52.548;13.420;2023-12-28T12:52:01;3.58;;;1.30;;
72573;SDS011;60603;52.548;13.420;2023-12-28T12:54:31;4.55;;;1.50;;
72573;SDS011;60603;52.548;13.420;2023-12-28T12:56:58;5.10;;;1.70;;
72573;SDS011;60603;52.548;13.420;2023-12-28T12:59:25;5.18;;;1.45;;
72573;SDS011;60603;52.548;13.420;2023-12-28T13:01:53;4.03;;;1.40;;
72573;SDS011;60603;52.548;13.420;2023-12-28T13:04:20;5.35;;;1.90;;
72573;SDS011;60603;52.548;13.420;2023-12-28T13:06:48;5.82;;;1.80;;
72573;SDS011;60603;52.548;13.420;2023-12-28T13:09:15;6.93;;;1.83;;
72573;SDS011;60603;52.548;13.420;2023-12-28T13:11:43;3.65;;;1.55;;
72573;SDS011;60603;52.548;13.420;2023-12-28T13:14:10;5.35;;;2.30;;
72573;SDS011;60603;52.548;13.420;2023-12-28T13:16:37;4.13;;;1.95;;
72573;SDS011;60603;52.548;13.420;2023-12-28T13:19:03;6.30;;;1.88;;
72573;SDS011;60603;52.548;13.420;2023-12-28T13:21:31;4.70;;;1.50;;
72573;SDS011;60603;52.548;13.420;2023-12-28T13:23:57;4.35;;;1.55;;
72573;SDS011;60603;52.548;13.420;2023-12-28T13:28:54;4.80;;;1.13;;
72573;SDS011;60603;52.548;13.420;2023-12-28T13:31:23;6.82;;;2.70;;
72573;SDS011;60603;52.548;13.420;2023-12-28T13:33:51;3.58;;;1.25;;
72573;SDS011;60603;52.548;13.420;2023-12-28T13:36:18;6.20;;;1.60;;
72573;SDS011;60603;52.548;13.420;2023-12-28T13:38:45;5.63;;;1.55;;
72573;SDS011;60603;52.548;13.420;2023-12-28T13:41:12;4.72;;;1.63;;
72573;SDS011;60603;52.548;13.420;2023-12-28T13:43:39;5.75;;;1.33;;
72573;SDS011;60603;52.548;13.420;2023-12-28T13:46:06;4.50;;;1.73;;
72573;SDS011;60603;52.548;13.420;2023-12-28T13:48:33;5.97;;;2.20;;
72573;SDS011;60603;52.548;13.420;2023-12-28T13:51:02;3.47;;;1.48;;
72573;SDS011;60603;52.548;13.420;2023-12-28T13:53:28;5.05;;;1.50;;
72573;SDS011;60603;52.548;13.420;2023-12-28T13:55:56;4.85;;;1.90;;
72573;SDS011;60603;52.548;13.420;2023-12-28T13:58:22;6.13;;;1.80;;
72573;SDS011;60603;52.548;13.420;2023-12-28T14:00:49;5.85;;;1.52;;
72573;SDS011;60603;52.548;13.420;2023-12-28T14:03:16;3.67;;;1.38;;
72573;SDS011;60603;52.548;13.420;2023-12-28T14:05:44;4.25;;;1.60;;
72573;SDS011;60603;52.548;13.420;2023-12-28T14:08:11;3.80;;;1.20;;
72573;SDS011;60603;52.548;13.420;2023-12-28T14:10:38;3.75;;;1.50;;
72573;SDS011;60603;52.548;13.420;2023-12-28T14:13:05;5.72;;;1.70;;
72573;SDS011;60603;52.548;13.420;2023-12-28T14:15:32;7.47;;;2.10;;
72573;SDS011;60603;52.548;13.420;2023-12-28T14:17:59;6.00;;;1.50;;
72573;SDS011;60603;52.548;13.420;2023-12-28T14:20:26;3.60;;;1.30;;
72573;SDS011;60603;52.548;13.420;2023-12-28T14:22:54;4.85;;;1.25;;
72573;SDS011;60603;52.548;13.420;2023-12-28T14:25:22;3.88;;;1.38;;
72573;SDS011;60603;52.548;13.420;2023-12-28T14:27:49;5.93;;;1.67;;
72573;SDS011;60603;52.548;13.420;2023-12-28T14:30:17;6.20;;;1.55;;
72573;SDS011;60603;52.548;13.420;2023-12-28T14:32:44;4.90;;;1.50;;
72573;SDS011;60603;52.548;13.420;2023-12-28T14:35:11;4.90;;;1.63;;
72573;SDS011;60603;52.548;13.420;2023-12-28T14:37:42;6.07;;;1.77;;
72573;SDS011;60603;52.548;13.420;2023-12-28T14:40:10;5.03;;;1.60;;
72573;SDS011;60603;52.548;13.420;2023-12-28T14:42:38;6.13;;;1.65;;
72573;SDS011;60603;52.548;13.420;2023-12-28T14:45:06;5.43;;;1.52;;
72573;SDS011;60603;52.548;13.420;2023-12-28T14:47:33;4.82;;;1.38;;
72573;SDS011;60603;52.548;13.420;2023-12-28T14:50:00;4.45;;;1.60;;
72573;SDS011;60603;52.548;13.420;2023-12-28T14:52:28;5.13;;;1.98;;
72573;SDS011;60603;52.548;13.420;2023-12-28T14:54:55;4.65;;;1.80;;
72573;SDS011;60603;52.548;13.420;2023-12-28T14:57:22;6.70;;;1.65;;